sensor_id;sensor_type;location;lat;lon;timestamp;pressure;altitude;pressure_sealevel;temperature;humidity
72925;BME280;61070;50.794;7.054;2022-08-01T00:02:10;100989.97;;;22.20;62.57
72925;BME280;61070;50.794;7.054;2022-08-01T00:04:36;100988.59;;;22.13;62.58
72925;BME280;61070;50.794;7.054;2022-08-01T00:07:01;100985.34;;;22.06;62.78
72925;BME280;61070;50.794;7.054;2022-08-01T00:09:26;100982.41;;;22.11;62.87
72925;BME280;61070;50.794;7.054;2022-08-01T00:11:52;100985.38;;;22.22;62.63
72925;BME280;61070;50.794;7.054;2022-08-01T00:14:17;100983.09;;;22.14;62.61
72925;BME280;61070;50.794;7.054;2022-08-01T00:16:42;100978.84;;;22.10;62.62
72925;BME280;61070;50.794;7.054;2022-08-01T00:19:08;100981.38;;;21.96;63.46
72925;BME280;61070;50.794;7.054;2022-08-01T00:21:33;100980.88;;;22.05;63.08
72925;BME280;61070;50.794;7.054;2022-08-01T00:23:58;100979.63;;;21.95;63.21
72925;BME280;61070;50.794;7.054;2022-08-01T00:26:24;100979.50;;;21.98;63.45
72925;BME280;61070;50.794;7.054;2022-08-01T00:28:49;100976.75;;;22.15;62.90
72925;BME280;61070;50.794;7.054;2022-08-01T00:31:15;100973.75;;;22.04;63.07
72925;BME280;61070;50.794;7.054;2022-08-01T00:33:40;100983.38;;;22.10;62.83
72925;BME280;61070;50.794;7.054;2022-08-01T00:36:05;100980.88;;;22.05;62.93
72925;BME280;61070;50.794;7.054;2022-08-01T00:38:31;100981.56;;;21.93;63.68
72925;BME280;61070;50.794;7.054;2022-08-01T00:40:56;100977.72;;;21.97;63.68
72925;BME280;61070;50.794;7.054;2022-08-01T00:43:21;100980.72;;;22.08;63.38
72925;BME280;61070;50.794;7.054;2022-08-01T00:45:47;100977.56;;;22.00;63.51
72925;BME280;61070;50.794;7.054;2022-08-01T00:48:12;100977.38;;;21.87;63.85
72925;BME280;61070;50.794;7.054;2022-08-01T00:50:38;100981.06;;;22.02;63.36
72925;BME280;61070;50.794;7.054;2022-08-01T00:53:03;100972.19;;;22.00;63.53
72925;BME280;61070;50.794;7.054;2022-08-01T00:55:29;100976.34;;;22.05;63.41
72925;BME280;61070;50.794;7.054;2022-08-01T00:57:55;100983.22;;;21.95;63.71
72925;BME280;61070;50.794;7.054;2022-08-01T01:00:21;100971.13;;;22.02;63.51
72925;BME280;61070;50.794;7.054;2022-08-01T01:02:47;100978.53;;;21.99;63.46
72925;BME280;61070;50.794;7.054;2022-08-01T01:05:12;100977.59;;;21.83;64.11
72925;BME280;61070;50.794;7.054;2022-08-01T01:08:06;100972.75;;;21.89;64.11
72925;BME280;61070;50.794;7.054;2022-08-01T01:11:04;100979.53;;;21.80;64.65
72925;BME280;61070;50.794;7.054;2022-08-01T01:13:38;100982.81;;;21.86;64.52
72925;BME280;61070;50.794;7.054;2022-08-01T01:16:10;100981.81;;;21.88;64.41
72925;BME280;61070;50.794;7.054;2022-08-01T01:18:38;100980.09;;;21.70;64.76
72925;BME280;61070;50.794;7.054;2022-08-01T01:29:17;100991.28;;;21.79;65.19
72925;BME280;61070;50.794;7.054;2022-08-01T01:31:50;100992.22;;;21.78;65.29
72925;BME280;61070;50.794;7.054;2022-08-01T01:34:18;100983.59;;;21.72;65.50
72925;BME280;61070;50.794;7.054;2022-08-01T01:36:45;100988.88;;;21.73;65.86
72925;BME280;61070;50.794;7.054;2022-08-01T01:39:13;100993.19;;;21.77;65.87
72925;BME280;61070;50.794;7.054;2022-08-01T01:41:40;100997.28;;;21.85;65.52
72925;BME280;61070;50.794;7.054;2022-08-01T01:44:08;100994.13;;;21.76;65.91
72925;BME280;61070;50.794;7.054;2022-08-01T01:46:35;100999.19;;;21.83;65.88
72925;BME280;61070;50.794;7.054;2022-08-01T01:49:02;100996.69;;;21.62;66.62
72925;BME280;61070;50.794;7.054;2022-08-01T01:51:28;101001.06;;;21.65;66.94
72925;BME280;61070;50.794;7.054;2022-08-01T01:53:55;100998.28;;;21.49;67.21
72925;BME280;61070;50.794;7.054;2022-08-01T01:56:22;100995.06;;;21.42;67.95
72925;BME280;61070;50.794;7.054;2022-08-01T01:58:51;100992.09;;;21.47;67.64
72925;BME280;61070;50.794;7.054;2022-08-01T02:01:18;100992.19;;;21.45;67.77
72925;BME280;61070;50.794;7.054;2022-08-01T02:03:44;100990.75;;;21.38;67.98
72925;BME280;61070;50.794;7.054;2022-08-01T02:06:12;100991.50;;;21.42;67.92
72925;BME280;61070;50.794;7.054;2022-08-01T02:08:40;100996.16;;;21.38;68.52
72925;BME280;61070;50.794;7.054;2022-08-01T02:11:07;100991.91;;;21.15;69.31
72925;BME280;61070;50.794;7.054;2022-08-01T02:14:10;100988.50;;;21.12;69.40
72925;BME280;61070;50.794;7.054;2022-08-01T02:16:35;100994.13;;;21.25;69.17
72925;BME280;61070;50.794;7.054;2022-08-01T02:19:02;100991.00;;;21.34;68.94
72925;BME280;61070;50.794;7.054;2022-08-01T02:21:58;100994.13;;;21.25;69.19
72925;BME280;61070;50.794;7.054;2022-08-01T02:24:40;100981.56;;;21.42;68.77
72925;BME280;61070;50.794;7.054;2022-08-01T02:27:11;100990.44;;;21.27;69.23
72925;BME280;61070;50.794;7.054;2022-08-01T02:29:41;100987.19;;;21.20;69.40
72925;BME280;61070;50.794;7.054;2022-08-01T02:32:12;100984.88;;;21.13;69.80
72925;BME280;61070;50.794;7.054;2022-08-01T02:34:40;100986.38;;;21.18;nan
72925;BME280;61070;50.794;7.054;2022-08-01T02:37:07;100988.81;;;21.06;70.14
72925;BME280;61070;50.794;7.054;2022-08-01T02:39:35;100984.16;;;21.09;69.83
72925;BME280;61070;50.794;7.054;2022-08-01T02:42:05;100983.53;;;21.21;69.68
72925;BME280;61070;50.794;7.054;2022-08-01T02:44:37;100979.81;;;21.07;69.93
72925;BME280;61070;50.794;7.054;2022-08-01T02:47:04;100989.69;;;21.06;70.03
72925;BME280;61070;50.794;7.054;2022-08-01T02:49:50;100982.41;;;21.08;70.02
72925;BME280;61070;50.794;7.054;2022-08-01T02:52:19;100982.72;;;21.02;70.08
72925;BME280;61070;50.794;7.054;2022-08-01T02:54:47;100984.44;;;21.03;70.27
72925;BME280;61070;50.794;7.054;2022-08-01T02:57:14;100991.50;;;21.06;70.43
72925;BME280;61070;50.794;7.054;2022-08-01T02:59:42;100986.47;;;20.81;71.28
72925;BME280;61070;50.794;7.054;2022-08-01T03:02:08;100981.13;;;20.98;70.50
72925;BME280;61070;50.794;7.054;2022-08-01T03:04:35;100995.69;;;20.94;70.92
72925;BME280;61070;50.794;7.054;2022-08-01T03:07:04;100989.75;;;20.87;71.23
72925;BME280;61070;50.794;7.054;2022-08-01T03:09:32;100993.00;;;20.94;70.80
72925;BME280;61070;50.794;7.054;2022-08-01T03:12:01;100978.72;;;20.92;70.99
72925;BME280;61070;50.794;7.054;2022-08-01T03:14:29;100989.91;;;21.02;70.82
72925;BME280;61070;50.794;7.054;2022-08-01T03:16:56;101001.06;;;20.94;70.79
72925;BME280;61070;50.794;7.054;2022-08-01T03:19:24;100991.25;;;20.93;71.12
72925;BME280;61070;50.794;7.054;2022-08-01T03:21:50;100993.50;;;21.02;70.85
72925;BME280;61070;50.794;7.054;2022-08-01T03:24:16;100995.41;;;21.00;70.87
72925;BME280;61070;50.794;7.054;2022-08-01T03:26:44;100989.13;;;21.00;70.72
72925;BME280;61070;50.794;7.054;2022-08-01T03:29:16;100994.34;;;21.03;70.90
72925;BME280;61070;50.794;7.054;2022-08-01T03:31:44;100993.66;;;20.99;70.81
72925;BME280;61070;50.794;7.054;2022-08-01T03:34:10;101005.47;;;20.97;71.12
72925;BME280;61070;50.794;7.054;2022-08-01T03:36:43;100998.25;;;20.97;71.11
72925;BME280;61070;50.794;7.054;2022-08-01T03:39:11;100999.81;;;21.01;70.88
72925;BME280;61070;50.794;7.054;2022-08-01T03:41:40;101000.78;;;21.00;70.76
72925;BME280;61070;50.794;7.054;2022-08-01T03:44:10;101003.16;;;21.06;70.55
72925;BME280;61070;50.794;7.054;2022-08-01T03:46:50;100999.03;;;20.99;70.89
72925;BME280;61070;50.794;7.054;2022-08-01T03:49:20;101001.56;;;21.02;70.77
72925;BME280;61070;50.794;7.054;2022-08-01T03:51:48;101000.44;;;20.89;71.30
72925;BME280;61070;50.794;7.054;2022-08-01T03:54:16;101004.63;;;20.94;71.09
72925;BME280;61070;50.794;7.054;2022-08-01T03:56:43;101002.34;;;21.04;70.83
72925;BME280;61070;50.794;7.054;2022-08-01T03:59:09;100993.81;;;20.96;71.30
72925;BME280;61070;50.794;7.054;2022-08-01T04:01:36;100991.75;;;20.84;71.57
72925;BME280;61070;50.794;7.054;2022-08-01T04:04:01;100988.72;;;20.90;71.49
72925;BME280;61070;50.794;7.054;2022-08-01T04:06:30;100998.69;;;20.88;71.25
72925;BME280;61070;50.794;7.054;2022-08-01T04:08:55;100996.16;;;20.85;71.28
72925;BME280;61070;50.794;7.054;2022-08-01T04:11:22;100993.31;;;20.88;71.38
72925;BME280;61070;50.794;7.054;2022-08-01T04:13:48;100998.78;;;20.86;71.51
72925;BME280;61070;50.794;7.054;2022-08-01T04:16:14;100988.09;;;20.85;71.58
72925;BME280;61070;50.794;7.054;2022-08-01T04:18:39;101001.84;;;20.79;71.70
72925;BME280;61070;50.794;7.054;2022-08-01T04:21:05;101003.59;;;20.80;71.64
72925;BME280;61070;50.794;7.054;2022-08-01T04:23:31;101002.28;;;20.88;71.78
72925;BME280;61070;50.794;7.054;2022-08-01T04:25:59;101008.34;;;20.75;71.88
72925;BME280;61070;50.794;7.054;2022-08-01T04:28:25;101001.41;;;20.88;71.30
72925;BME280;61070;50.794;7.054;2022-08-01T04:30:54;100999.66;;;20.87;71.71
72925;BME280;61070;50.794;7.054;2022-08-01T04:33:21;101004.97;;;20.88;71.75
72925;BME280;61070;50.794;7.054;2022-08-01T04:35:48;101006.88;;;20.86;71.63
72925;BME280;61070;50.794;7.054;2022-08-01T04:38:19;101001.91;;;20.96;71.17
72925;BME280;61070;50.794;7.054;2022-08-01T04:40:46;101004.00;;;20.89;71.48
72925;BME280;61070;50.794;7.054;2022-08-01T04:43:12;101012.78;;;20.93;71.58
72925;BME280;61070;50.794;7.054;2022-08-01T04:45:37;101014.41;;;20.97;71.23
72925;BME280;61070;50.794;7.054;2022-08-01T04:48:05;101016.94;;;21.00;71.07
72925;BME280;61070;50.794;7.054;2022-08-01T04:50:31;101016.69;;;21.05;71.23
72925;BME280;61070;50.794;7.054;2022-08-01T04:52:57;101014.22;;;21.19;70.60
72925;BME280;61070;50.794;7.054;2022-08-01T04:55:22;101023.63;;;21.10;70.80
72925;BME280;61070;50.794;7.054;2022-08-01T04:57:48;101020.59;;;21.16;70.84
72925;BME280;61070;50.794;7.054;2022-08-01T05:00:14;101025.53;;;21.08;71.04
72925;BME280;61070;50.794;7.054;2022-08-01T05:02:41;101019.03;;;21.12;71.22
72925;BME280;61070;50.794;7.054;2022-08-01T05:05:07;101026.59;;;21.04;71.26
72925;BME280;61070;50.794;7.054;2022-08-01T05:07:33;101035.13;;;20.95;71.42
72925;BME280;61070;50.794;7.054;2022-08-01T05:10:02;101036.59;;;21.02;71.43
72925;BME280;61070;50.794;7.054;2022-08-01T05:12:27;101027.88;;;20.97;71.75
72925;BME280;61070;50.794;7.054;2022-08-01T05:14:53;101034.22;;;21.13;71.09
72925;BME280;61070;50.794;7.054;2022-08-01T05:17:18;101027.88;;;21.14;71.06
72925;BME280;61070;50.794;7.054;2022-08-01T05:19:43;101026.84;;;21.00;71.41
72925;BME280;61070;50.794;7.054;2022-08-01T05:22:09;101036.44;;;21.05;71.56
72925;BME280;61070;50.794;7.054;2022-08-01T05:24:36;101032.97;;;21.20;70.99
72925;BME280;61070;50.794;7.054;2022-08-01T05:27:03;101030.41;;;21.17;71.16
72925;BME280;61070;50.794;7.054;2022-08-01T05:29:28;101035.19;;;21.12;71.41
72925;BME280;61070;50.794;7.054;2022-08-01T05:31:54;101031.91;;;21.06;71.43
72925;BME280;61070;50.794;7.054;2022-08-01T05:34:19;101042.03;;;21.19;71.17
72925;BME280;61070;50.794;7.054;2022-08-01T05:36:45;101039.94;;;21.25;70.97
72925;BME280;61070;50.794;7.054;2022-08-01T05:39:11;101041.72;;;21.26;71.03
72925;BME280;61070;50.794;7.054;2022-08-01T05:41:37;101045.97;;;21.12;71.56
72925;BME280;61070;50.794;7.054;2022-08-01T05:44:03;101048.28;;;21.20;71.57
72925;BME280;61070;50.794;7.054;2022-08-01T05:46:29;101040.78;;;21.27;70.87
72925;BME280;61070;50.794;7.054;2022-08-01T05:48:56;101045.06;;;21.31;70.86
72925;BME280;61070;50.794;7.054;2022-08-01T05:51:21;101052.34;;;21.29;70.99
72925;BME280;61070;50.794;7.054;2022-08-01T05:53:47;101052.03;;;21.35;70.60
72925;BME280;61070;50.794;7.054;2022-08-01T05:56:12;101050.31;;;21.34;70.61
72925;BME280;61070;50.794;7.054;2022-08-01T05:58:37;101056.41;;;21.37;70.38
72925;BME280;61070;50.794;7.054;2022-08-01T06:01:03;101050.53;;;21.46;70.50
72925;BME280;61070;50.794;7.054;2022-08-01T06:03:28;101049.44;;;21.33;70.90
72925;BME280;61070;50.794;7.054;2022-08-01T06:05:56;101057.25;;;21.20;71.24
72925;BME280;61070;50.794;7.054;2022-08-01T06:08:22;101060.47;;;21.10;71.48
72925;BME280;61070;50.794;7.054;2022-08-01T06:10:47;101050.69;;;21.26;71.28
72925;BME280;61070;50.794;7.054;2022-08-01T06:13:12;101045.88;;;21.33;70.98
72925;BME280;61070;50.794;7.054;2022-08-01T06:15:38;101058.38;;;21.34;71.04
72925;BME280;61070;50.794;7.054;2022-08-01T06:18:03;101055.69;;;21.34;71.45
72925;BME280;61070;50.794;7.054;2022-08-01T06:20:30;101052.66;;;21.40;71.23
72925;BME280;61070;50.794;7.054;2022-08-01T06:22:55;101054.28;;;21.44;70.76
72925;BME280;61070;50.794;7.054;2022-08-01T06:25:20;101051.66;;;21.60;70.27
72925;BME280;61070;50.794;7.054;2022-08-01T06:27:46;101060.94;;;21.54;70.54
72925;BME280;61070;50.794;7.054;2022-08-01T06:30:11;101060.59;;;21.60;70.67
72925;BME280;61070;50.794;7.054;2022-08-01T06:32:37;101055.56;;;21.54;71.42
72925;BME280;61070;50.794;7.054;2022-08-01T06:35:03;101054.03;;;21.48;71.30
72925;BME280;61070;50.794;7.054;2022-08-01T06:37:29;101065.53;;;21.69;70.75
72925;BME280;61070;50.794;7.054;2022-08-01T06:39:55;101053.69;;;21.72;70.68
72925;BME280;61070;50.794;7.054;2022-08-01T06:42:20;101054.25;;;21.61;70.42
72925;BME280;61070;50.794;7.054;2022-08-01T06:44:46;101060.78;;;21.57;70.41
72925;BME280;61070;50.794;7.054;2022-08-01T06:47:11;101055.28;;;21.59;70.61
72925;BME280;61070;50.794;7.054;2022-08-01T06:49:37;101061.88;;;21.70;70.44
72925;BME280;61070;50.794;7.054;2022-08-01T06:52:02;101054.56;;;21.72;70.07
72925;BME280;61070;50.794;7.054;2022-08-01T06:54:28;101055.44;;;21.90;69.42
72925;BME280;61070;50.794;7.054;2022-08-01T06:56:54;101057.03;;;22.12;68.58
72925;BME280;61070;50.794;7.054;2022-08-01T06:59:19;101060.69;;;22.26;68.04
72925;BME280;61070;50.794;7.054;2022-08-01T07:01:44;101059.84;;;22.42;66.87
72925;BME280;61070;50.794;7.054;2022-08-01T07:04:10;101067.75;;;22.29;67.46
72925;BME280;61070;50.794;7.054;2022-08-01T07:06:35;101064.19;;;22.28;67.61
72925;BME280;61070;50.794;7.054;2022-08-01T07:09:00;101062.16;;;22.16;68.12
72925;BME280;61070;50.794;7.054;2022-08-01T07:11:27;101059.00;;;21.91;68.74
72925;BME280;61070;50.794;7.054;2022-08-01T07:13:52;101057.19;;;22.08;67.96
72925;BME280;61070;50.794;7.054;2022-08-01T07:16:17;101062.69;;;22.05;67.96
72925;BME280;61070;50.794;7.054;2022-08-01T07:18:43;101059.28;;;22.19;67.12
72925;BME280;61070;50.794;7.054;2022-08-01T07:21:08;101065.41;;;22.23;66.73
72925;BME280;61070;50.794;7.054;2022-08-01T07:23:34;101062.41;;;22.12;67.09
72925;BME280;61070;50.794;7.054;2022-08-01T07:26:00;101063.00;;;22.34;66.52
72925;BME280;61070;50.794;7.054;2022-08-01T07:28:27;101058.19;;;22.39;65.77
72925;BME280;61070;50.794;7.054;2022-08-01T07:30:53;101065.09;;;22.60;64.74
72925;BME280;61070;50.794;7.054;2022-08-01T07:33:18;101066.06;;;22.44;65.61
72925;BME280;61070;50.794;7.054;2022-08-01T07:35:43;101065.97;;;22.61;65.43
72925;BME280;61070;50.794;7.054;2022-08-01T07:38:09;101073.72;;;22.51;65.76
72925;BME280;61070;50.794;7.054;2022-08-01T07:40:35;101071.19;;;22.64;65.35
72925;BME280;61070;50.794;7.054;2022-08-01T07:43:00;101074.84;;;22.47;65.87
72925;BME280;61070;50.794;7.054;2022-08-01T07:45:26;101073.78;;;22.34;66.14
72925;BME280;61070;50.794;7.054;2022-08-01T07:47:52;101076.31;;;22.37;66.34
72925;BME280;61070;50.794;7.054;2022-08-01T07:50:17;101080.38;;;22.28;66.26
72925;BME280;61070;50.794;7.054;2022-08-01T07:52:43;101075.22;;;22.57;65.28
72925;BME280;61070;50.794;7.054;2022-08-01T07:55:09;101082.44;;;22.56;65.18
72925;BME280;61070;50.794;7.054;2022-08-01T07:57:35;101076.25;;;22.54;65.48
72925;BME280;61070;50.794;7.054;2022-08-01T08:00:00;101083.03;;;22.46;65.08
72925;BME280;61070;50.794;7.054;2022-08-01T08:02:26;101082.81;;;22.66;64.53
72925;BME280;61070;50.794;7.054;2022-08-01T08:04:51;101081.66;;;22.54;65.22
72925;BME280;61070;50.794;7.054;2022-08-01T08:07:17;101082.53;;;22.71;64.14
72925;BME280;61070;50.794;7.054;2022-08-01T08:09:42;101085.34;;;22.85;63.74
72925;BME280;61070;50.794;7.054;2022-08-01T08:12:07;101082.56;;;22.86;63.59
72925;BME280;61070;50.794;7.054;2022-08-01T08:14:33;101090.22;;;22.78;64.05
72925;BME280;61070;50.794;7.054;2022-08-01T08:16:59;101086.72;;;22.76;63.95
72925;BME280;61070;50.794;7.054;2022-08-01T08:19:24;101087.06;;;22.70;63.44
72925;BME280;61070;50.794;7.054;2022-08-01T08:21:49;101094.44;;;22.84;63.14
72925;BME280;61070;50.794;7.054;2022-08-01T08:24:15;101097.75;;;23.05;62.55
72925;BME280;61070;50.794;7.054;2022-08-01T08:26:50;101095.28;;;23.16;62.56
72925;BME280;61070;50.794;7.054;2022-08-01T08:29:16;101093.34;;;23.18;62.71
72925;BME280;61070;50.794;7.054;2022-08-01T08:31:42;101092.31;;;23.20;62.23
72925;BME280;61070;50.794;7.054;2022-08-01T08:34:07;101090.06;;;23.13;62.40
72925;BME280;61070;50.794;7.054;2022-08-01T08:36:33;101097.72;;;23.36;61.78
72925;BME280;61070;50.794;7.054;2022-08-01T08:38:59;101099.78;;;23.31;62.28
72925;BME280;61070;50.794;7.054;2022-08-01T08:41:31;101101.00;;;23.41;61.27
72925;BME280;61070;50.794;7.054;2022-08-01T08:43:57;101096.78;;;23.67;61.10
72925;BME280;61070;50.794;7.054;2022-08-01T08:46:27;101100.47;;;23.50;61.04
72925;BME280;61070;50.794;7.054;2022-08-01T08:48:53;101093.13;;;23.68;59.93
72925;BME280;61070;50.794;7.054;2022-08-01T08:51:19;101102.59;;;23.75;60.09
72925;BME280;61070;50.794;7.054;2022-08-01T08:53:46;101101.59;;;24.06;59.26
72925;BME280;61070;50.794;7.054;2022-08-01T08:56:12;101108.03;;;24.34;58.44
72925;BME280;61070;50.794;7.054;2022-08-01T08:58:40;101103.75;;;24.30;58.17
72925;BME280;61070;50.794;7.054;2022-08-01T09:01:06;101107.63;;;24.54;57.82
72925;BME280;61070;50.794;7.054;2022-08-01T09:03:33;101103.00;;;24.71;57.53
72925;BME280;61070;50.794;7.054;2022-08-01T09:05:59;101105.50;;;24.74;57.28
72925;BME280;61070;50.794;7.054;2022-08-01T09:08:24;101104.94;;;24.40;57.83
72925;BME280;61070;50.794;7.054;2022-08-01T09:10:49;101113.25;;;24.65;57.38
72925;BME280;61070;50.794;7.054;2022-08-01T09:13:15;101110.81;;;24.75;56.85
72925;BME280;61070;50.794;7.054;2022-08-01T09:15:46;101106.03;;;25.07;55.19
72925;BME280;61070;50.794;7.054;2022-08-01T09:18:34;101111.38;;;24.94;55.19
72925;BME280;61070;50.794;7.054;2022-08-01T09:23:42;101104.22;;;24.93;55.13
72925;BME280;61070;50.794;7.054;2022-08-01T09:26:10;101101.75;;;25.17;54.56
72925;BME280;61070;50.794;7.054;2022-08-01T09:28:36;101094.03;;;24.97;54.33
72925;BME280;61070;50.794;7.054;2022-08-01T09:31:06;101100.38;;;24.83;54.74
72925;BME280;61070;50.794;7.054;2022-08-01T09:34:00;101101.47;;;24.52;55.76
72925;BME280;61070;50.794;7.054;2022-08-01T09:36:47;101104.94;;;24.40;56.57
72925;BME280;61070;50.794;7.054;2022-08-01T09:39:17;101100.25;;;24.85;53.78
72925;BME280;61070;50.794;7.054;2022-08-01T09:41:42;101098.06;;;25.18;53.78
72925;BME280;61070;50.794;7.054;2022-08-01T09:44:08;101099.47;;;24.97;54.90
72925;BME280;61070;50.794;7.054;2022-08-01T09:46:33;101097.41;;;25.01;54.94
72925;BME280;61070;50.794;7.054;2022-08-01T09:49:03;101095.59;;;25.01;55.05
72925;BME280;61070;50.794;7.054;2022-08-01T09:51:36;101092.78;;;24.88;55.20
72925;BME280;61070;50.794;7.054;2022-08-01T09:54:03;101095.47;;;25.17;54.46
72925;BME280;61070;50.794;7.054;2022-08-01T09:56:39;101092.19;;;25.12;54.99
72925;BME280;61070;50.794;7.054;2022-08-01T09:59:05;101107.28;;;25.16;54.38
72925;BME280;61070;50.794;7.054;2022-08-01T10:01:43;101099.03;;;25.44;53.34
72925;BME280;61070;50.794;7.054;2022-08-01T10:06:41;101105.44;;;24.47;56.06
72925;BME280;61070;50.794;7.054;2022-08-01T10:09:08;101106.50;;;24.58;56.06
72925;BME280;61070;50.794;7.054;2022-08-01T10:11:34;101100.78;;;24.34;56.15
72925;BME280;61070;50.794;7.054;2022-08-01T10:14:03;101099.28;;;24.29;56.23
72925;BME280;61070;50.794;7.054;2022-08-01T10:16:30;101088.84;;;24.08;56.55
72925;BME280;61070;50.794;7.054;2022-08-01T10:18:57;101105.59;;;24.29;56.52
72925;BME280;61070;50.794;7.054;2022-08-01T10:21:23;101093.22;;;24.25;56.58
72925;BME280;61070;50.794;7.054;2022-08-01T10:23:51;101092.56;;;24.36;56.56
72925;BME280;61070;50.794;7.054;2022-08-01T10:26:16;101092.75;;;24.61;56.57
72925;BME280;61070;50.794;7.054;2022-08-01T10:28:44;101086.56;;;24.59;56.33
72925;BME280;61070;50.794;7.054;2022-08-01T10:31:11;101094.78;;;24.58;56.37
72925;BME280;61070;50.794;7.054;2022-08-01T10:33:36;101089.13;;;24.75;55.21
72925;BME280;61070;50.794;7.054;2022-08-01T10:36:05;101080.13;;;25.03;55.22
72925;BME280;61070;50.794;7.054;2022-08-01T10:38:31;101082.75;;;25.44;53.41
72925;BME280;61070;50.794;7.054;2022-08-01T10:40:57;101090.25;;;25.93;52.39
72925;BME280;61070;50.794;7.054;2022-08-01T10:43:24;101076.25;;;26.25;50.64
72925;BME280;61070;50.794;7.054;2022-08-01T10:45:50;101082.63;;;26.75;49.41
72925;BME280;61070;50.794;7.054;2022-08-01T10:48:39;101079.63;;;26.90;48.06
72925;BME280;61070;50.794;7.054;2022-08-01T10:51:08;101072.56;;;26.38;49.59
72925;BME280;61070;50.794;7.054;2022-08-01T10:53:33;101070.38;;;25.93;50.86
72925;BME280;61070;50.794;7.054;2022-08-01T10:56:01;101072.88;;;25.83;50.58
72925;BME280;61070;50.794;7.054;2022-08-01T10:58:33;101073.13;;;25.66;50.64
72925;BME280;61070;50.794;7.054;2022-08-01T11:03:40;101069.88;;;25.61;49.75
72925;BME280;61070;50.794;7.054;2022-08-01T11:06:06;101080.31;;;25.67;49.28
72925;BME280;61070;50.794;7.054;2022-08-01T11:08:36;101072.53;;;25.75;49.42
72925;BME280;61070;50.794;7.054;2022-08-01T11:11:02;101079.00;;;25.60;50.72
72925;BME280;61070;50.794;7.054;2022-08-01T11:16:27;101068.88;;;25.89;49.74
72925;BME280;61070;50.794;7.054;2022-08-01T11:18:53;101067.47;;;26.08;49.05
72925;BME280;61070;50.794;7.054;2022-08-01T11:21:18;101063.56;;;26.51;48.48
72925;BME280;61070;50.794;7.054;2022-08-01T11:23:49;101072.91;;;26.83;47.59
72925;BME280;61070;50.794;7.054;2022-08-01T11:26:15;101062.97;;;27.32;46.23
72925;BME280;61070;50.794;7.054;2022-08-01T11:28:42;101069.16;;;27.34;46.43
72925;BME280;61070;50.794;7.054;2022-08-01T11:38:44;101073.25;;;25.64;50.66
72925;BME280;61070;50.794;7.054;2022-08-01T11:41:14;101075.19;;;25.22;51.54
72925;BME280;61070;50.794;7.054;2022-08-01T11:52:08;101073.09;;;25.40;50.13
72925;BME280;61070;50.794;7.054;2022-08-01T11:57:10;101075.38;;;26.50;49.02
72925;BME280;61070;50.794;7.054;2022-08-01T11:59:48;101062.34;;;26.55;48.50
72925;BME280;61070;50.794;7.054;2022-08-01T12:02:33;101071.88;;;26.73;48.14
72925;BME280;61070;50.794;7.054;2022-08-01T12:05:01;101062.56;;;26.52;48.35
72925;BME280;61070;50.794;7.054;2022-08-01T12:07:29;101062.75;;;26.74;48.15
72925;BME280;61070;50.794;7.054;2022-08-01T12:10:06;101067.47;;;26.08;49.37
72925;BME280;61070;50.794;7.054;2022-08-01T12:12:34;101064.97;;;26.44;48.42
72925;BME280;61070;50.794;7.054;2022-08-01T12:15:06;101066.44;;;26.60;48.37
72925;BME280;61070;50.794;7.054;2022-08-01T12:17:44;101059.59;;;27.04;47.57
72925;BME280;61070;50.794;7.054;2022-08-01T12:20:12;101061.09;;;26.72;47.16
72925;BME280;61070;50.794;7.054;2022-08-01T12:22:38;101063.72;;;26.73;46.52
72925;BME280;61070;50.794;7.054;2022-08-01T12:27:40;101071.72;;;26.51;46.62
72925;BME280;61070;50.794;7.054;2022-08-01T12:30:17;101076.25;;;26.37;46.99
72925;BME280;61070;50.794;7.054;2022-08-01T12:32:44;101064.41;;;26.51;46.76
72925;BME280;61070;50.794;7.054;2022-08-01T12:35:13;101069.66;;;26.42;47.04
72925;BME280;61070;50.794;7.054;2022-08-01T12:37:41;101066.44;;;26.60;46.74
72925;BME280;61070;50.794;7.054;2022-08-01T12:42:45;101062.91;;;26.84;46.47
72925;BME280;61070;50.794;7.054;2022-08-01T12:45:13;101066.03;;;26.90;45.77
72925;BME280;61070;50.794;7.054;2022-08-01T12:47:40;101066.69;;;26.45;46.48
72925;BME280;61070;50.794;7.054;2022-08-01T12:50:08;101062.53;;;26.64;46.06
72925;BME280;61070;50.794;7.054;2022-08-01T12:52:37;101057.38;;;26.73;45.13
72925;BME280;61070;50.794;7.054;2022-08-01T12:55:14;101054.47;;;26.76;44.07
72925;BME280;61070;50.794;7.054;2022-08-01T12:57:42;101051.31;;;26.69;44.66
72925;BME280;61070;50.794;7.054;2022-08-01T13:02:35;101038.53;;;27.89;41.69
72925;BME280;61070;50.794;7.054;2022-08-01T13:05:02;101043.06;;;28.46;40.36
72925;BME280;61070;50.794;7.054;2022-08-01T13:07:35;101048.25;;;28.38;39.92
72925;BME280;61070;50.794;7.054;2022-08-01T13:10:01;101040.66;;;28.08;40.05
72925;BME280;61070;50.794;7.054;2022-08-01T13:12:26;101040.63;;;27.50;40.86
72925;BME280;61070;50.794;7.054;2022-08-01T13:14:52;101047.16;;;27.37;42.75
72925;BME280;61070;50.794;7.054;2022-08-01T13:17:31;101049.81;;;27.25;43.51
72925;BME280;61070;50.794;7.054;2022-08-01T13:19:57;101055.16;;;26.54;45.02
72925;BME280;61070;50.794;7.054;2022-08-01T13:22:31;101047.75;;;26.56;44.93
72925;BME280;61070;50.794;7.054;2022-08-01T13:25:14;101050.53;;;26.05;46.23
72925;BME280;61070;50.794;7.054;2022-08-01T13:27:39;101048.13;;;26.51;45.80
72925;BME280;61070;50.794;7.054;2022-08-01T13:30:18;101057.16;;;26.39;46.13
72925;BME280;61070;50.794;7.054;2022-08-01T13:33:04;101052.69;;;26.51;45.62
72925;BME280;61070;50.794;7.054;2022-08-01T13:35:30;101059.28;;;26.59;45.39
72925;BME280;61070;50.794;7.054;2022-08-01T13:37:55;101062.16;;;26.07;46.21
72925;BME280;61070;50.794;7.054;2022-08-01T13:40:26;101063.34;;;26.28;45.52